Terminal Aerodrome Forecast
Issued by NWS

Home | Current Version | Previous Version | Graphics & Text | Print | Product List | Glossary On
Versions: 1 2 3 4 5 6 7 8 9 10 11 12 13 14 15
000
FTUS43 KICT 191200 AAA
TAFRSL
TAF AMD
KRSL 191253Z 1913/2012 18012KT 5SM BR OVC007
     FM191600 18015KT P6SM SCT050
     FM191900 18015G21KT P6SM SCT050
     FM200200 16010KT P6SM SCT250=

USA.gov is the U.S. government's official web portal to all federal, state and local government web resources and services.